Time;durP1;ratioP1;P1;durP2;ratioP2;P2;SDS_P1;SDS_P2;PMS_P1;PMS_P2;Temp;Humidity;BMP_temperature;BMP_pressure;BME280_temperature;BME280_humidity;BME280_pressure;Samples;Min_cycle;Max_cycle;Signal;HPM_P1;HPM_P2
2021/07/19 00:00:22;;;;;;;4.38;2.40;;;;;;;26.87;44.28;101933.13;4974481;28;20105;-60
2021/07/19 00:02:47;;;;;;;2.85;2.50;;;;;;;26.80;44.64;101932.28;4974494;28;20022;-60
2021/07/19 00:05:14;;;;;;;6.65;2.47;;;;;;;26.74;44.36;101933.06;4974495;28;20433;-60
2021/07/19 00:07:40;;;;;;;5.85;2.67;;;;;;;26.70;44.61;101943.63;4974889;28;20058;-60
2021/07/19 00:10:07;;;;;;;6.28;3.45;;;;;;;26.65;44.58;101937.91;4977975;28;20427;-61
2021/07/19 00:12:33;;;;;;;3.33;2.35;;;;;;;26.61;44.96;101940.22;4977944;28;20383;-61
2021/07/19 00:14:58;;;;;;;13.65;2.60;;;;;;;26.55;45.04;101937.44;4977858;28;20023;-61
2021/07/19 00:17:24;;;;;;;5.93;2.58;;;;;;;26.51;45.46;101938.94;5009252;28;20077;-61
2021/07/19 00:19:50;;;;;;;4.45;2.50;;;;;;;26.47;45.59;101945.88;5009475;28;20534;-61
2021/07/19 00:22:19;;;;;;;4.25;2.70;;;;;;;26.45;45.42;101942.50;4978062;28;20022;-61
2021/07/19 00:24:45;;;;;;;5.97;3.13;;;;;;;26.42;45.20;101937.41;4977695;28;20031;-61
2021/07/19 00:27:11;;;;;;;4.13;2.50;;;;;;;26.36;45.71;101929.97;4977661;28;20049;-61
2021/07/19 00:29:37;;;;;;;3.70;2.88;;;;;;;26.33;45.49;101930.38;4977391;28;20033;-60
2021/07/19 00:32:03;;;;;;;7.35;3.40;;;;;;;26.29;45.96;101929.13;4976092;28;20030;-61
2021/07/19 00:34:29;;;;;;;5.43;3.25;;;;;;;26.25;45.83;101927.81;4978357;28;20025;-61
2021/07/19 00:36:54;;;;;;;4.22;2.53;;;;;;;26.24;45.67;101938.00;4977843;28;20039;-61
2021/07/19 00:39:21;;;;;;;4.30;2.80;;;;;;;26.20;45.75;101924.84;4975960;28;20022;-61
2021/07/19 00:41:47;;;;;;;3.38;2.45;;;;;;;26.16;45.55;101927.16;4977555;28;20030;-60
2021/07/19 00:44:17;;;;;;;10.05;2.88;;;;;;;26.12;45.58;101925.84;4977907;28;20031;-61
2021/07/19 00:46:42;;;;;;;8.55;3.42;;;;;;;26.08;45.94;101926.44;4977104;28;20511;-61
2021/07/19 00:49:07;;;;;;;5.88;3.22;;;;;;;26.05;45.58;101923.06;4977387;28;20050;-61
2021/07/19 00:51:33;;;;;;;5.95;3.10;;;;;;;26.01;46.06;101930.03;4976126;28;20061;-61
2021/07/19 00:53:59;;;;;;;4.25;3.42;;;;;;;25.96;45.90;101920.72;4977093;28;20054;-61
2021/07/19 00:56:25;;;;;;;5.68;2.70;;;;;;;25.95;45.75;101928.09;4977148;28;20027;-61
2021/07/19 00:58:51;;;;;;;6.90;3.58;;;;;;;25.88;46.15;101924.44;5008550;28;20085;-61
2021/07/19 01:01:18;;;;;;;5.47;2.53;;;;;;;25.89;46.28;101928.03;4975604;28;20103;-60
2021/07/19 01:03:44;;;;;;;5.57;2.72;;;;;;;25.84;46.05;101919.56;4977677;28;20364;-61
2021/07/19 01:06:09;;;;;;;4.18;2.22;;;;;;;25.86;45.98;101922.94;4976708;28;20054;-61
2021/07/19 01:08:37;;;;;;;4.38;3.28;;;;;;;25.84;45.72;101928.66;4975622;28;20031;-61
2021/07/19 01:11:02;;;;;;;4.15;2.42;;;;;;;25.81;46.08;101920.84;4976885;28;20034;-61
2021/07/19 01:13:28;;;;;;;6.13;3.33;;;;;;;25.77;46.23;101913.19;5008334;28;20042;-61
2021/07/19 01:15:53;;;;;;;5.53;2.90;;;;;;;25.82;46.13;101918.94;4976578;28;20018;-61
2021/07/19 01:18:19;;;;;;;6.72;3.05;;;;;;;25.82;46.08;101919.78;4976936;28;20035;-60
2021/07/19 01:20:59;;;;;;;6.43;2.92;;;;;;;25.86;46.38;101925.69;4976183;28;20563;-60
2021/07/19 01:23:43;;;;;;;7.10;2.75;;;;;;;25.87;46.11;101919.16;4976728;28;20026;-61
2021/07/19 01:26:31;;;;;;;4.35;2.80;;;;;;;25.83;46.04;101923.34;4976341;28;20530;-60
2021/07/19 01:28:58;;;;;;;6.32;2.70;;;;;;;25.79;46.18;101917.44;4976909;28;20097;-61
2021/07/19 01:31:26;;;;;;;10.75;3.33;;;;;;;25.73;45.95;101915.50;5007569;28;20026;-61
2021/07/19 01:34:00;;;;;;;4.32;2.88;;;;;;;25.69;45.85;101908.72;4976131;28;20038;-61
2021/07/19 01:36:30;;;;;;;4.32;2.55;;;;;;;25.65;45.99;101907.44;4976714;28;20023;-60
2021/07/19 01:38:56;;;;;;;3.80;2.63;;;;;;;25.61;45.77;101908.88;5007758;28;20037;-61
2021/07/19 01:41:22;;;;;;;11.63;3.67;;;;;;;25.53;46.33;101909.03;4976448;28;20387;-61
2021/07/19 01:43:48;;;;;;;5.05;3.22;;;;;;;25.53;46.23;101906.28;4975103;28;20029;-60
2021/07/19 01:46:15;;;;;;;5.53;3.88;;;;;;;25.46;46.58;101910.88;4976385;28;20034;-60
2021/07/19 01:48:40;;;;;;;5.97;3.33;;;;;;;25.46;46.10;101916.34;4975153;28;20448;-60
2021/07/19 01:51:06;;;;;;;6.80;3.30;;;;;;;25.44;46.52;101908.31;5007251;28;20102;-60
2021/07/19 01:53:32;;;;;;;4.13;2.70;;;;;;;25.43;46.41;101922.25;4974999;28;20105;-61
2021/07/19 01:55:58;;;;;;;5.13;2.78;;;;;;;25.41;46.52;101916.06;4990686;28;20029;-61
2021/07/19 01:58:24;;;;;;;8.70;3.33;;;;;;;25.35;46.45;101897.66;5007435;28;20424;-61
2021/07/19 02:00:50;;;;;;;4.97;2.92;;;;;;;25.35;46.21;101900.41;5007126;28;20121;-61
2021/07/19 02:03:15;;;;;;;9.43;4.10;;;;;;;25.32;46.11;101909.88;4974590;28;20122;-61
2021/07/19 02:05:41;;;;;;;4.25;2.88;;;;;;;25.25;46.18;101902.66;4975363;28;20034;-61
2021/07/19 02:08:07;;;;;;;8.30;3.05;;;;;;;25.25;46.60;101909.00;4974521;28;20030;-61
2021/07/19 02:10:33;;;;;;;6.40;3.15;;;;;;;25.24;46.88;101904.56;4974651;28;20026;-61
2021/07/19 02:12:59;;;;;;;4.32;3.33;;;;;;;25.19;46.41;101904.31;4975838;28;20374;-61
2021/07/19 02:15:25;;;;;;;8.32;3.83;;;;;;;25.20;46.99;101910.66;4974304;28;20027;-60
2021/07/19 02:17:55;;;;;;;6.88;2.88;;;;;;;25.17;47.08;101916.53;4974322;28;20467;-60
2021/07/19 02:20:21;;;;;;;4.47;3.08;;;;;;;25.13;46.32;101910.59;4975931;28;20034;-60
2021/07/19 02:22:46;;;;;;;5.57;3.47;;;;;;;25.16;46.81;101912.06;4974744;28;20038;-61
2021/07/19 02:25:13;;;;;;;4.03;2.75;;;;;;;25.17;46.48;101916.53;4990279;28;20026;-61
2021/07/19 02:27:41;;;;;;;12.48;3.35;;;;;;;25.16;47.19;101920.31;4974445;28;20030;-61
2021/07/19 02:30:08;;;;;;;5.40;2.58;;;;;;;25.12;46.52;101919.88;4974434;28;20416;-60
2021/07/19 02:32:36;;;;;;;6.15;3.45;;;;;;;24.99;47.12;101905.16;4975469;28;20034;-61
2021/07/19 02:35:03;;;;;;;7.10;3.30;;;;;;;25.02;46.42;101918.50;4973926;28;20093;-60
2021/07/19 02:37:30;;;;;;;4.50;3.00;;;;;;;24.99;47.30;101925.22;4974235;28;20484;-61
2021/07/19 02:39:55;;;;;;;5.00;3.20;;;;;;;24.96;47.00;101925.63;5006559;28;20476;-61
2021/07/19 02:42:21;;;;;;;5.35;3.08;;;;;;;24.94;46.58;101919.47;4974084;28;20034;-60
2021/07/19 02:44:46;;;;;;;7.45;4.28;;;;;;;24.90;46.81;101916.28;5006284;28;20102;-61
2021/07/19 02:47:12;;;;;;;5.72;3.08;;;;;;;24.86;47.08;101919.63;4975660;28;20057;-61
2021/07/19 02:49:38;;;;;;;6.63;3.03;;;;;;;24.82;47.08;101919.16;4974243;28;20062;-61
2021/07/19 02:52:04;;;;;;;5.55;2.80;;;;;;;24.77;47.20;101916.13;5006361;28;20031;-61
2021/07/19 02:54:30;;;;;;;4.38;3.45;;;;;;;24.73;46.87;101914.84;4975090;28;20105;-61
2021/07/19 02:56:57;;;;;;;4.50;2.45;;;;;;;24.70;47.39;101912.47;5006619;28;20058;-61
2021/07/19 02:59:22;;;;;;;9.00;2.60;;;;;;;24.66;46.95;101911.16;4975091;28;20528;-63
2021/07/19 03:01:51;;;;;;;13.30;3.35;;;;;;;24.64;46.99;101918.75;4957483;28;20029;-62
2021/07/19 03:04:16;;;;;;;5.75;3.00;;;;;;;24.61;46.78;101915.53;5006335;28;20031;-62
2021/07/19 03:06:43;;;;;;;7.18;2.47;;;;;;;24.56;47.50;101912.53;5006014;28;20422;-62
2021/07/19 03:09:09;;;;;;;6.28;2.97;;;;;;;24.57;47.21;101906.00;4973841;28;20481;-63
2021/07/19 03:11:41;;;;;;;6.40;2.85;;;;;;;24.50;47.47;101905.94;5006190;28;20037;-63
2021/07/19 03:14:09;;;;;;;6.03;3.47;;;;;;;24.47;46.85;101906.31;4973374;28;20146;-62
2021/07/19 03:16:35;;;;;;;6.10;3.00;;;;;;;24.49;47.91;101917.91;5006835;28;20479;-63
2021/07/19 03:19:03;;;;;;;6.93;2.70;;;;;;;24.44;47.65;101912.19;4974588;28;20472;-62
2021/07/19 03:21:29;;;;;;;7.03;2.88;;;;;;;24.42;47.54;101917.00;4974924;28;20498;-63
2021/07/19 03:23:57;;;;;;;12.20;3.13;;;;;;;24.45;47.06;101911.16;4974896;28;20035;-63
2021/07/19 03:26:23;;;;;;;6.22;3.35;;;;;;;24.43;47.15;101907.72;5005925;28;20519;-62
2021/07/19 03:28:50;;;;;;;7.32;3.47;;;;;;;24.39;47.54;101903.69;4973615;28;20023;-62
2021/07/19 03:31:16;;;;;;;3.55;2.75;;;;;;;24.42;47.36;101906.06;4974661;28;20058;-63
2021/07/19 03:33:43;;;;;;;5.50;3.13;;;;;;;24.42;47.99;101905.19;4974661;28;20403;-63
2021/07/19 03:36:12;;;;;;;8.82;3.20;;;;;;;24.41;47.87;101903.50;4974434;28;20022;-62
2021/07/19 03:38:38;;;;;;;7.40;2.83;;;;;;;24.39;47.39;101900.09;4974976;28;20109;-63
2021/07/19 03:41:05;;;;;;;4.50;1.92;;;;;;;24.37;47.47;101897.56;5005642;28;20109;-63
2021/07/19 03:43:31;;;;;;;5.88;2.78;;;;;;;24.34;46.98;101903.44;4975833;28;20039;-63
2021/07/19 03:45:57;;;;;;;5.40;2.30;;;;;;;24.30;47.39;101902.13;5009411;28;20113;-63
2021/07/19 03:48:22;;;;;;;4.45;2.58;;;;;;;24.25;47.45;101899.09;5009683;28;20109;-63
2021/07/19 03:50:50;;;;;;;7.10;2.67;;;;;;;24.21;47.40;101906.84;5010049;28;20077;-62
2021/07/19 03:53:16;;;;;;;2.63;2.20;;;;;;;24.21;48.03;101908.72;5009968;28;20031;-62
2021/07/19 03:55:44;;;;;;;3.47;2.22;;;;;;;24.19;47.92;101910.81;4976819;28;20494;-63
2021/07/19 03:58:13;;;;;;;2.80;2.10;;;;;;;24.19;47.35;101916.31;5009929;28;20455;-62
2021/07/19 04:00:39;;;;;;;5.32;2.60;;;;;;;24.19;47.90;101916.31;4978212;28;20408;-63
2021/07/19 04:03:21;;;;;;;5.68;2.55;;;;;;;24.14;47.58;101918.78;5009762;28;20031;-62
2021/07/19 04:05:50;;;;;;;3.13;2.38;;;;;;;24.19;47.81;101925.38;4977877;28;20035;-62
2021/07/19 04:08:16;;;;;;;7.57;3.33;;;;;;;24.15;47.81;101918.56;5008285;28;20051;-62
2021/07/19 04:10:43;;;;;;;5.10;2.97;;;;;;;24.16;47.41;101924.91;5009379;28;20025;-62
2021/07/19 04:13:10;;;;;;;9.60;3.25;;;;;;;24.21;48.01;101923.28;4978202;28;20030;-63
2021/07/19 04:15:36;;;;;;;5.95;3.55;;;;;;;24.21;47.50;101919.69;5009013;28;20114;-63
2021/07/19 04:18:02;;;;;;;8.45;3.53;;;;;;;24.27;47.98;101929.88;4977884;28;20026;-62
2021/07/19 04:20:27;;;;;;;5.57;3.05;;;;;;;24.29;47.74;101922.31;4978119;28;20031;-62
2021/07/19 04:22:54;;;;;;;10.80;4.10;;;;;;;24.33;48.25;101926.38;4977752;28;20093;-63
2021/07/19 04:25:20;;;;;;;6.00;3.10;;;;;;;24.38;48.18;101923.91;4977703;28;20031;-63
2021/07/19 04:27:45;;;;;;;5.78;3.22;;;;;;;24.45;48.79;101934.97;4977453;28;20432;-63
2021/07/19 04:30:12;;;;;;;5.60;4.00;;;;;;;24.47;48.57;101930.13;4977700;28;20027;-63
2021/07/19 04:32:40;;;;;;;7.13;3.38;;;;;;;24.54;48.41;101937.38;4977646;28;20163;-63
2021/07/19 04:35:12;;;;;;;8.77;3.28;;;;;;;24.64;48.25;101940.66;4977258;28;20109;-63
2021/07/19 04:37:38;;;;;;;9.68;4.00;;;;;;;24.70;48.86;101941.78;4978038;28;20166;-63
2021/07/19 04:40:05;;;;;;;4.47;3.17;;;;;;;24.75;48.58;101939.28;5008883;28;20109;-63
2021/07/19 04:42:31;;;;;;;7.93;3.63;;;;;;;24.82;49.19;101948.44;4977284;28;20035;-63
2021/07/19 04:44:57;;;;;;;8.48;4.10;;;;;;;24.88;48.81;101947.69;4977309;28;20023;-63
2021/07/19 04:47:23;;;;;;;5.80;3.67;;;;;;;24.95;49.09;101945.00;4977340;28;20027;-63
2021/07/19 04:49:48;;;;;;;7.57;3.65;;;;;;;25.00;48.51;101948.88;4977314;28;20018;-63
2021/07/19 04:52:14;;;;;;;7.93;3.83;;;;;;;25.05;48.73;101951.00;4977435;28;20031;-62
2021/07/19 04:54:39;;;;;;;6.30;4.00;;;;;;;25.10;49.09;101954.03;4976941;28;20460;-61
2021/07/19 04:57:06;;;;;;;9.20;4.55;;;;;;;25.14;48.77;101949.84;5008420;28;20029;-61
2021/07/19 04:59:37;;;;;;;7.15;3.83;;;;;;;25.16;48.72;101955.97;4977185;28;20031;-60
2021/07/19 05:02:03;;;;;;;5.63;3.95;;;;;;;25.18;48.50;101951.97;5008689;28;20027;-61
2021/07/19 05:04:29;;;;;;;8.18;4.18;;;;;;;25.19;48.80;101953.69;5008187;28;20111;-61
2021/07/19 05:06:55;;;;;;;12.75;4.07;;;;;;;25.22;48.85;101957.91;4976749;28;20489;-61
2021/07/19 05:09:23;;;;;;;15.43;3.78;;;;;;;25.23;48.68;101959.63;4991806;28;20121;-60
2021/07/19 05:11:50;;;;;;;8.00;3.47;;;;;;;25.30;48.73;101964.13;4977003;28;20027;-60
2021/07/19 05:14:16;;;;;;;6.25;3.63;;;;;;;25.34;48.62;101962.69;4975444;28;20100;-61
2021/07/19 05:16:41;;;;;;;6.40;4.00;;;;;;;25.38;48.81;101953.00;5008438;28;20038;-61
2021/07/19 05:19:09;;;;;;;7.45;4.10;;;;;;;25.38;48.71;101943.91;4976855;28;20027;-61
2021/07/19 05:21:36;;;;;;;7.72;3.42;;;;;;;25.44;48.27;101945.88;5007967;28;20494;-60
2021/07/19 05:24:02;;;;;;;8.13;3.90;;;;;;;25.51;48.91;101956.94;4976970;28;20026;-61
2021/07/19 05:26:28;;;;;;;5.93;4.15;;;;;;;25.58;48.58;101953.19;4976963;28;20607;-61
2021/07/19 05:28:56;;;;;;;7.93;4.28;;;;;;;25.67;48.18;101957.47;5007746;28;20105;-60
2021/07/19 05:31:21;;;;;;;8.80;4.20;;;;;;;25.75;48.53;101951.84;4976442;28;20460;-61
2021/07/19 05:33:46;;;;;;;8.00;3.53;;;;;;;25.85;48.29;101951.47;4977205;28;20025;-61
2021/07/19 05:36:12;;;;;;;5.68;3.53;;;;;;;25.94;48.27;101948.34;4976221;28;20038;-60
2021/07/19 05:38:37;;;;;;;8.27;3.85;;;;;;;26.02;47.99;101955.56;4995767;28;20026;-60
2021/07/19 05:41:05;;;;;;;6.15;3.47;;;;;;;26.19;47.39;101956.13;4994594;28;20038;-61
2021/07/19 05:43:30;;;;;;;7.43;4.20;;;;;;;26.36;46.89;101958.31;4996168;28;20038;-60
2021/07/19 05:45:56;;;;;;;7.78;3.78;;;;;;;26.49;47.02;101954.78;4995774;28;20478;-60
2021/07/19 05:48:21;;;;;;;10.18;4.10;;;;;;;26.66;46.85;101958.88;4995957;28;20022;-60
2021/07/19 05:50:46;;;;;;;10.38;4.30;;;;;;;26.78;46.68;101961.84;4994605;28;20109;-61
2021/07/19 05:53:12;;;;;;;8.73;4.32;;;;;;;26.90;46.79;101958.31;4995212;28;20084;-60
2021/07/19 05:55:37;;;;;;;7.20;4.32;;;;;;;27.10;45.91;101966.59;4995346;28;20035;-60
2021/07/19 05:58:03;;;;;;;10.70;4.82;;;;;;;27.23;45.60;101960.25;4995819;28;20022;-60
2021/07/19 06:00:29;;;;;;;9.05;4.35;;;;;;;27.41;45.27;101964.09;4993994;28;20033;-60
2021/07/19 06:02:54;;;;;;;10.55;3.75;;;;;;;27.59;45.55;101972.56;4995142;28;20062;-60
2021/07/19 06:05:19;;;;;;;9.23;4.13;;;;;;;27.78;44.97;101965.31;4994613;28;20476;-61
2021/07/19 06:07:45;;;;;;;8.20;4.20;;;;;;;27.83;45.37;101951.78;4994856;28;20046;-61
2021/07/19 06:10:12;;;;;;;11.82;4.80;;;;;;;28.06;45.18;101971.44;4994970;28;20027;-61
2021/07/19 06:12:39;;;;;;;10.05;3.90;;;;;;;28.21;44.02;101965.66;4994954;28;20022;-61
2021/07/19 06:15:06;;;;;;;9.18;4.30;;;;;;;28.38;44.92;101963.28;4994884;28;20475;-61
2021/07/19 06:17:33;;;;;;;12.13;5.22;;;;;;;28.49;44.13;101968.94;4984537;28;20038;-60
2021/07/19 06:19:59;;;;;;;7.35;4.55;;;;;;;28.65;44.21;101956.59;4975785;28;20018;-61
2021/07/19 06:22:24;;;;;;;7.85;4.28;;;;;;;28.81;44.12;101961.59;4993765;28;20479;-61
2021/07/19 06:24:51;;;;;;;7.32;4.20;;;;;;;28.95;42.93;101968.69;4994968;28;20022;-60
2021/07/19 06:27:17;;;;;;;7.95;4.40;;;;;;;29.12;42.64;101972.63;4994571;28;20034;-61
2021/07/19 06:29:43;;;;;;;8.98;4.72;;;;;;;29.24;43.44;101973.63;4994897;28;20484;-60
2021/07/19 06:32:08;;;;;;;8.60;4.88;;;;;;;29.36;41.98;101971.84;5026409;28;20050;-60
2021/07/19 06:34:33;;;;;;;9.68;4.68;;;;;;;29.47;42.11;101961.97;4994625;28;20130;-61
2021/07/19 06:36:59;;;;;;;10.18;5.53;;;;;;;29.59;41.95;101964.84;4994575;28;20030;-60
2021/07/19 06:39:24;;;;;;;15.38;4.90;;;;;;;29.66;41.62;101971.16;4994780;28;20037;-61
2021/07/19 06:41:49;;;;;;;9.68;5.82;;;;;;;29.72;41.82;101971.09;4994776;28;20459;-61
2021/07/19 06:44:15;;;;;;;12.98;4.65;;;;;;;29.83;41.84;101966.75;4994824;28;20026;-61
2021/07/19 06:46:40;;;;;;;12.35;5.68;;;;;;;29.96;41.11;101967.47;4994822;28;20026;-60
2021/07/19 06:49:06;;;;;;;9.80;5.00;;;;;;;30.10;41.57;101964.53;4994268;28;20023;-61
2021/07/19 06:51:31;;;;;;;8.55;5.15;;;;;;;30.24;40.65;101958.63;4994212;28;20418;-61
2021/07/19 06:53:56;;;;;;;8.45;4.93;;;;;;;30.41;40.66;101964.41;4994332;28;20018;-61
2021/07/19 06:56:22;;;;;;;9.57;4.38;;;;;;;30.54;40.84;101965.06;4994505;28;20380;-61
2021/07/19 06:58:47;;;;;;;10.30;4.57;;;;;;;30.63;40.46;101962.81;4994763;28;20120;-61
2021/07/19 07:01:12;;;;;;;10.73;4.72;;;;;;;30.74;40.20;101967.56;4994663;28;20092;-61
2021/07/19 07:03:38;;;;;;;10.65;4.82;;;;;;;30.85;40.14;101969.53;4994149;28;20026;-61
2021/07/19 07:06:03;;;;;;;11.82;5.45;;;;;;;30.97;39.99;101977.91;4994157;28;20114;-61
2021/07/19 07:08:29;;;;;;;8.68;5.30;;;;;;;31.05;39.55;101980.34;4994001;28;20023;-61
2021/07/19 07:10:54;;;;;;;10.52;4.78;;;;;;;31.16;39.13;101978.72;4993974;28;20050;-61
2021/07/19 07:13:20;;;;;;;18.70;5.03;;;;;;;31.28;39.13;101974.03;4992861;28;20026;-60
2021/07/19 07:15:45;;;;;;;6.80;4.53;;;;;;;31.38;38.90;101980.66;4994667;28;20064;-60
2021/07/19 07:18:10;;;;;;;7.68;3.95;;;;;;;31.45;38.78;101980.56;4996164;28;20022;-61
2021/07/19 07:20:36;;;;;;;10.05;4.50;;;;;;;31.47;38.14;101970.94;4998669;28;20026;-61
2021/07/19 07:23:02;;;;;;;8.40;3.92;;;;;;;31.56;38.62;101968.66;4998590;28;20411;-61
2021/07/19 07:25:28;;;;;;;6.40;4.22;;;;;;;31.68;38.11;101967.59;4998646;28;20026;-61
2021/07/19 07:27:53;;;;;;;8.25;4.55;;;;;;;31.71;37.94;101964.31;4998228;28;20031;-61
2021/07/19 07:30:20;;;;;;;8.45;4.32;;;;;;;31.85;37.77;101958.56;4998195;28;20034;-62
2021/07/19 07:32:46;;;;;;;9.05;4.25;;;;;;;31.98;37.31;101955.50;4998134;28;20033;-62
2021/07/19 07:35:12;;;;;;;9.43;4.28;;;;;;;31.88;37.96;101956.16;4998030;28;20026;-60
2021/07/19 07:37:37;;;;;;;7.65;4.28;;;;;;;31.84;37.39;101960.47;4998123;28;20386;-61
2021/07/19 07:40:04;;;;;;;8.30;4.28;;;;;;;32.10;36.74;101957.22;4997749;28;20018;-61
2021/07/19 07:42:30;;;;;;;11.80;4.28;;;;;;;32.25;37.26;101963.09;4997689;28;20517;-60
2021/07/19 07:44:56;;;;;;;6.72;4.05;;;;;;;32.16;37.01;101966.50;4997922;28;20022;-61
2021/07/19 07:47:21;;;;;;;7.32;3.92;;;;;;;32.09;37.42;101963.00;4997829;28;20018;-61
2021/07/19 07:49:48;;;;;;;5.50;3.97;;;;;;;32.15;37.20;101975.91;4997124;28;20040;-61
2021/07/19 07:52:14;;;;;;;12.30;4.82;;;;;;;31.98;36.83;101977.69;4997972;28;20030;-61
2021/07/19 07:54:40;;;;;;;10.02;4.75;;;;;;;31.84;37.09;101979.03;4998380;28;20037;-61
2021/07/19 07:57:05;;;;;;;9.27;4.30;;;;;;;31.58;37.51;101975.66;5029040;28;20418;-61
2021/07/19 07:59:31;;;;;;;10.25;4.35;;;;;;;31.61;36.97;101983.50;4997631;28;20030;-61
2021/07/19 08:01:58;;;;;;;9.60;5.45;;;;;;;31.49;36.82;101979.03;4997431;28;20382;-60
2021/07/19 08:04:23;;;;;;;6.18;4.10;;;;;;;31.33;37.06;101979.69;4997735;28;20463;-61
2021/07/19 08:06:49;;;;;;;11.90;3.63;;;;;;;31.32;36.99;101973.31;4996119;28;20038;-62
2021/07/19 08:09:14;;;;;;;7.25;4.68;;;;;;;31.85;36.11;101964.94;4997492;28;20023;-61
2021/07/19 08:11:41;;;;;;;11.82;4.57;;;;;;;31.81;36.39;101971.19;4997321;28;20022;-62
2021/07/19 08:14:07;;;;;;;9.40;4.38;;;;;;;31.58;36.91;101953.47;4997661;28;20364;-62
2021/07/19 08:16:36;;;;;;;7.65;4.07;;;;;;;31.70;36.93;101962.66;4997399;28;20023;-61
2021/07/19 08:19:02;;;;;;;7.90;4.40;;;;;;;32.19;35.81;101966.00;4996243;28;20473;-61
2021/07/19 08:21:27;;;;;;;9.80;5.13;;;;;;;32.48;35.33;101956.63;4997203;28;20101;-62
2021/07/19 08:23:52;;;;;;;10.57;4.32;;;;;;;32.12;35.93;101970.84;4997327;28;20037;-61
2021/07/19 08:26:18;;;;;;;11.98;4.35;;;;;;;31.97;35.61;101965.75;4997326;28;20154;-62
2021/07/19 08:28:43;;;;;;;9.90;4.25;;;;;;;32.37;35.27;101970.53;4997035;28;20076;-61
2021/07/19 08:31:09;;;;;;;6.85;4.40;;;;;;;32.77;34.98;101955.59;4997457;28;20026;-61
2021/07/19 08:33:34;;;;;;;7.32;4.70;;;;;;;33.17;34.25;101955.47;4997161;28;20049;-62
2021/07/19 08:35:59;;;;;;;10.45;4.88;;;;;;;33.42;34.70;101957.84;4995492;28;20069;-60
2021/07/19 08:38:25;;;;;;;5.07;4.43;;;;;;;33.01;34.85;101952.66;4996928;28;20482;-62
2021/07/19 08:40:50;;;;;;;10.60;5.07;;;;;;;32.99;34.76;101947.38;4997058;28;20346;-62
2021/07/19 08:43:16;;;;;;;10.15;6.35;;;;;;;33.16;34.44;101958.53;4996792;28;20101;-61
2021/07/19 08:45:41;;;;;;;5.38;4.03;;;;;;;33.25;34.07;101966.19;4996385;28;20022;-61
2021/07/19 08:48:07;;;;;;;8.52;4.45;;;;;;;33.35;34.89;101965.53;4996677;28;20022;-62
2021/07/19 08:50:32;;;;;;;10.90;5.28;;;;;;;33.50;33.99;101965.78;4996697;28;20089;-62
2021/07/19 08:52:58;;;;;;;7.63;4.78;;;;;;;34.04;33.39;101955.75;4996700;28;20356;-62
2021/07/19 08:55:24;;;;;;;8.18;5.38;;;;;;;33.91;33.56;101961.69;4995322;28;20360;-61
2021/07/19 08:57:50;;;;;;;7.28;5.22;;;;;;;33.76;34.13;101979.00;4996797;28;20086;-62
2021/07/19 09:00:19;;;;;;;12.73;5.60;;;;;;;33.52;34.12;101974.69;4996446;28;20022;-62
2021/07/19 09:02:45;;;;;;;7.93;4.90;;;;;;;33.26;34.22;101953.13;4996265;28;20118;-62
2021/07/19 09:05:11;;;;;;;8.93;5.45;;;;;;;33.30;34.08;101965.44;4996423;28;20058;-62
2021/07/19 09:07:36;;;;;;;7.95;5.07;;;;;;;33.34;34.97;101966.59;4996057;28;20050;-61
2021/07/19 09:10:03;;;;;;;11.55;5.68;;;;;;;33.29;34.77;101955.41;4996044;28;20034;-61
2021/07/19 09:12:36;;;;;;;8.75;5.35;;;;;;;33.08;34.71;101962.56;4996245;28;20027;-62
2021/07/19 09:15:03;;;;;;;9.80;6.38;;;;;;;32.96;34.98;101961.75;4996132;28;20019;-61
2021/07/19 09:17:29;;;;;;;8.50;6.10;;;;;;;32.92;34.36;101956.94;4996192;28;20072;-62
2021/07/19 09:19:55;;;;;;;8.05;5.93;;;;;;;33.51;33.91;101956.34;5027889;28;20058;-60
2021/07/19 09:22:26;;;;;;;11.07;5.93;;;;;;;33.84;33.00;101956.31;4996124;28;20117;-61
2021/07/19 09:24:52;;;;;;;11.02;6.20;;;;;;;34.20;32.72;101954.06;4996371;28;20032;-61
2021/07/19 09:27:21;;;;;;;10.88;5.93;;;;;;;33.90;32.97;101954.44;4996057;28;20116;-61
2021/07/19 09:29:47;;;;;;;11.48;5.70;;;;;;;33.67;33.68;101952.72;4996253;28;20026;-61
2021/07/19 09:32:13;;;;;;;9.13;5.97;;;;;;;33.44;33.64;101955.69;4995093;28;20117;-61
2021/07/19 09:34:41;;;;;;;11.60;6.65;;;;;;;33.75;33.71;101963.41;4994583;28;20022;-61
2021/07/19 09:37:11;;;;;;;10.50;6.45;;;;;;;34.39;32.61;101952.63;4995350;28;20024;-61
2021/07/19 09:39:39;;;;;;;11.35;7.75;;;;;;;34.83;32.01;101954.28;4995726;28;20030;-61
2021/07/19 09:42:16;;;;;;;9.30;6.78;;;;;;;35.07;31.73;101946.44;4995462;28;20034;-61
2021/07/19 09:44:56;;;;;;;10.48;6.78;;;;;;;34.81;32.29;101945.34;4994849;28;20030;-61
2021/07/19 09:47:34;;;;;;;9.95;6.70;;;;;;;34.67;32.54;101946.88;4995706;28;20026;-61
2021/07/19 09:50:02;;;;;;;10.90;6.18;;;;;;;34.52;32.34;101953.06;4995577;28;20034;-61
2021/07/19 09:52:34;;;;;;;10.55;7.25;;;;;;;34.60;31.88;101949.00;4994275;28;20438;-62
2021/07/19 09:55:00;;;;;;;12.13;6.88;;;;;;;34.86;32.26;101948.19;4995412;28;20026;-61
2021/07/19 09:57:25;;;;;;;11.07;7.03;;;;;;;35.27;31.85;101943.84;4995142;28;20034;-62
2021/07/19 09:59:55;;;;;;;12.43;7.00;;;;;;;35.62;31.06;101937.72;4995440;28;20030;-63
2021/07/19 10:02:40;;;;;;;10.65;6.60;;;;;;;35.83;31.34;101936.75;4995058;28;20023;-62
2021/07/19 10:05:10;;;;;;;11.57;7.03;;;;;;;35.49;31.60;101938.16;4995087;28;20022;-62
2021/07/19 10:07:37;;;;;;;11.82;6.90;;;;;;;35.17;32.04;101942.91;4994990;28;20108;-62
2021/07/19 10:10:06;;;;;;;10.68;5.97;;;;;;;34.92;31.72;101941.56;5027031;28;20046;-62
2021/07/19 10:12:32;;;;;;;8.93;5.47;;;;;;;34.70;32.54;101942.72;4994830;28;20085;-62
2021/07/19 10:14:58;;;;;;;10.25;6.15;;;;;;;34.73;31.33;101945.78;4994745;28;20054;-61
2021/07/19 10:17:24;;;;;;;8.13;6.03;;;;;;;36.09;30.03;101933.00;5026473;28;20027;-61
2021/07/19 10:19:52;;;;;;;9.60;6.47;;;;;;;37.33;28.77;101943.91;5026384;28;20474;-62
2021/07/19 10:22:18;;;;;;;10.95;7.10;;;;;;;37.62;28.66;101943.38;4994556;28;20041;-61
2021/07/19 10:24:44;;;;;;;8.95;6.35;;;;;;;37.29;28.88;101940.03;4994978;28;20023;-62
2021/07/19 10:27:16;;;;;;;11.45;7.43;;;;;;;37.46;28.67;101933.31;4995015;28;20026;-61
2021/07/19 10:29:44;;;;;;;7.88;6.45;;;;;;;37.67;29.26;101938.59;4995194;28;20036;-62
2021/07/19 10:32:09;;;;;;;13.18;7.00;;;;;;;37.14;29.60;101930.78;4994962;28;20486;-61
2021/07/19 10:34:34;;;;;;;9.80;5.63;;;;;;;36.73;30.17;101925.16;4993276;28;20026;-62
2021/07/19 10:37:02;;;;;;;8.63;5.85;;;;;;;36.20;30.25;101925.50;5009700;28;20479;-62
2021/07/19 10:39:31;;;;;;;9.48;6.55;;;;;;;36.43;30.16;101916.66;4994127;28;20022;-61
2021/07/19 10:41:58;;;;;;;11.48;6.25;;;;;;;37.05;28.63;101922.13;4993507;28;20026;-61
2021/07/19 10:44:31;;;;;;;8.77;6.18;;;;;;;37.54;28.74;101916.81;4994732;28;20026;-61
2021/07/19 10:46:57;;;;;;;7.82;7.03;;;;;;;38.03;28.98;101919.75;4994361;28;20064;-61
2021/07/19 10:49:28;;;;;;;7.95;6.43;;;;;;;38.56;27.50;101920.09;4977018;28;20161;-61
2021/07/19 10:51:54;;;;;;;10.00;5.90;;;;;;;38.33;28.81;101916.03;4994502;28;20053;-62
2021/07/19 10:54:21;;;;;;;10.20;6.43;;;;;;;37.65;28.85;101931.59;4993261;28;20066;-61
2021/07/19 10:56:51;;;;;;;8.93;5.82;;;;;;;37.18;28.98;101931.91;4994556;28;20049;-62
2021/07/19 10:59:43;;;;;;;8.93;5.65;;;;;;;36.83;29.27;101929.03;4994665;28;20026;-62
2021/07/19 11:02:08;;;;;;;8.40;5.80;;;;;;;36.66;29.40;101929.28;4991082;28;20044;-61
2021/07/19 11:04:45;;;;;;;10.60;6.78;;;;;;;36.97;28.91;101919.88;4995005;28;20034;-62
2021/07/19 11:07:11;;;;;;;9.95;6.50;;;;;;;37.65;28.49;101923.22;4994198;28;20113;-61
2021/07/19 11:09:38;;;;;;;7.72;5.85;;;;;;;38.12;27.99;101914.41;4993523;28;20026;-61
2021/07/19 11:12:12;;;;;;;9.63;5.70;;;;;;;38.29;27.61;101904.53;4992200;28;20026;-61
2021/07/19 11:14:56;;;;;;;9.07;5.88;;;;;;;37.93;28.81;101905.81;4992146;28;20034;-61
2021/07/19 11:17:27;;;;;;;11.45;5.75;;;;;;;38.03;28.19;101888.97;4993070;28;20034;-61
2021/07/19 11:19:56;;;;;;;10.23;6.55;;;;;;;37.76;28.60;101905.28;4993536;28;20021;-62
2021/07/19 11:22:23;;;;;;;8.55;5.22;;;;;;;37.42;28.93;101910.66;4993452;28;20121;-61